首页
METAR-TAF:

METAR-TAF

机场 :

威廉姆斯湖, 不列颠哥伦比亚, 加拿大

纬度: 52-11N, 经度: 122-03W, 海拔: 940米

当前天气观测

该预报发布于26分钟前的13:00 UTC
风速2节,风向西南
温度 7°C
湿度 87%
气压 1016 hPa
能見度: 24.1公里
少量云层高于12000英尺
少量云层高于23000英尺

METAR: CYWL 221300Z 23002KT 15SM FEW120 FEW230 07/05 A3000 RMK AC1CI1 AC TR CI TR SLP171

时间: 06:26 (13:26 UTC)

预报

该预报发布于48分钟前的12:38 UTC
预报有效从22日的 13点(UTC)到 23日的 01点(UTC)
风速3节,风向多变
能見度: 10公里
少量云层高于10000英尺
成为
从 22日的 18点(UTC)到 22日的 20点(UTC)
风速6节,风向西北

TAF: CYWL 221238Z 2213/2301 VRB03KT P6SM FEW100 BECMG 2218/2220 31006KT RMK NXT FCST BY 221900Z

超过4000个机场的气象观测和天气预报(METAR&TAF报告)。

可查询的气象台以黄色和红色小点在地图上表示。

将鼠标移到小点上方,可查看气象台名称。

然后点击查看天气观测和预报。

如需切换地图:点击带黑十字的绿色按钮放大地图;点击带横线的绿色按钮缩小地图;或者点击绿色箭头查看邻近地区的地图。


METAR-TAF: